Cacoal, Brazil
Current Conditions -  °F | °C
As of 11:00 AM on Thursday 30 Oct 2014 (Local Time) from SBVH Reporting Station
Broken Clouds Broken Clouds  
Wind Chill: 79°   Ceiling: 8000
Heat Index: 81°   Visibility: 6mi
Dew Point: 70°   Wind: 6mph
Humidity: 74%   Direction: 30°NNE
Pressure: 29.94"   Gusts: NA
Location:  11.44°S, 61.45°W
Report Text: SBVH 301500Z 03005KT 9999 FEW020 BKN080 26/21 Q1014
Loading
Personal Weather Stations






























Interactive Weather Map
Tropical Storm Tracking
New forecast layout! Learn more

10-Day Weather Forecast

Advertisements
Track Severe Weather on mobile